Time;durP1;ratioP1;P1;durP2;ratioP2;P2;SDS_P1;SDS_P2;PMS_P1;PMS_P2;Temp;Humidity;BMP_temperature;BMP_pressure;BME280_temperature;BME280_humidity;BME280_pressure;Samples;Min_cycle;Max_cycle;Signal;HPM_P1;HPM_P2
2022/12/21 00:01:15;;;;;;;12.38;4.38;;;9.00;99.90;;;;;;5097828;28;20115;-69
2022/12/21 00:03:42;;;;;;;10.70;3.60;;;9.00;99.90;;;;;;5084071;28;20039;-69
2022/12/21 00:06:08;;;;;;;13.32;4.68;;;8.90;99.90;;;;;;5080915;28;20044;-69
2022/12/21 00:08:36;;;;;;;12.25;4.40;;;8.90;99.90;;;;;;5101067;28;20051;-69
2022/12/21 00:11:02;;;;;;;14.18;4.45;;;8.90;99.90;;;;;;5099467;28;20085;-69
2022/12/21 00:13:29;;;;;;;13.88;4.30;;;8.90;99.90;;;;;;5099344;28;20079;-70
2022/12/21 00:16:06;;;;;;;17.42;4.28;;;8.90;99.90;;;;;;5101735;28;20039;-69
2022/12/21 00:18:33;;;;;;;15.50;5.13;;;8.80;99.90;;;;;;5100304;28;20028;-69
2022/12/21 00:21:01;;;;;;;14.05;4.85;;;8.80;99.90;;;;;;5099092;28;20048;-70
2022/12/21 00:23:28;;;;;;;14.65;5.43;;;8.80;99.90;;;;;;5099898;28;20035;-69
2022/12/21 00:25:53;;;;;;;14.55;5.30;;;8.80;99.90;;;;;;5102879;27;20036;-69
2022/12/21 00:28:19;;;;;;;12.82;4.55;;;8.80;99.90;;;;;;5099018;28;20396;-69
2022/12/21 00:30:45;;;;;;;14.82;5.65;;;8.70;99.90;;;;;;5102819;28;20027;-69
2022/12/21 00:33:10;;;;;;;13.77;4.43;;;8.70;99.90;;;;;;5099362;28;20122;-69
2022/12/21 00:35:36;;;;;;;16.42;5.05;;;8.70;99.90;;;;;;5098047;28;21353;-69
2022/12/21 00:38:02;;;;;;;17.60;6.50;;;8.70;99.90;;;;;;5085241;28;20072;-69
2022/12/21 00:40:27;;;;;;;11.63;3.88;;;8.70;99.90;;;;;;5105039;27;20032;-69
2022/12/21 00:42:53;;;;;;;11.25;5.05;;;8.70;99.90;;;;;;5105264;28;20053;-69
2022/12/21 00:45:18;;;;;;;15.85;4.40;;;8.70;99.90;;;;;;5102311;28;20241;-69
2022/12/21 00:47:44;;;;;;;12.70;4.88;;;8.70;99.90;;;;;;5095458;28;20036;-69
2022/12/21 00:50:09;;;;;;;16.48;5.32;;;8.70;99.90;;;;;;5098902;28;20046;-69
2022/12/21 00:52:35;;;;;;;12.15;4.18;;;8.70;99.90;;;;;;5101863;28;20039;-69
2022/12/21 00:55:01;;;;;;;16.08;4.68;;;8.70;99.90;;;;;;5098855;28;20561;-69
2022/12/21 00:57:28;;;;;;;14.57;5.20;;;8.70;99.90;;;;;;5084873;28;20126;-69
2022/12/21 00:59:53;;;;;;;14.45;4.05;;;8.60;99.90;;;;;;5102481;28;20352;-70
2022/12/21 01:02:19;;;;;;;11.05;4.20;;;8.60;99.90;;;;;;5099823;28;20058;-69
2022/12/21 01:04:45;;;;;;;10.20;3.65;;;8.60;99.90;;;;;;5100143;28;20142;-69
2022/12/21 01:07:10;;;;;;;12.05;3.95;;;8.60;99.90;;;;;;5100542;28;20040;-69
2022/12/21 01:09:36;;;;;;;10.77;4.03;;;8.60;99.90;;;;;;5100924;28;20035;-69
2022/12/21 01:12:01;;;;;;;13.05;3.80;;;8.60;99.90;;;;;;5097866;28;21714;-69
2022/12/21 01:14:27;;;;;;;12.48;4.50;;;8.50;99.90;;;;;;5082801;28;20063;-70
2022/12/21 01:16:53;;;;;;;9.23;3.95;;;8.50;99.90;;;;;;5099854;28;20036;-69
2022/12/21 01:19:20;;;;;;;9.65;3.17;;;8.50;99.90;;;;;;5100489;28;20036;-69
2022/12/21 01:21:46;;;;;;;11.65;4.28;;;8.50;99.90;;;;;;5099632;28;20035;-69
2022/12/21 01:24:12;;;;;;;13.68;4.55;;;8.50;99.90;;;;;;5101251;28;20164;-69
2022/12/21 01:26:38;;;;;;;13.98;5.00;;;8.40;99.90;;;;;;5079790;28;20119;-69
2022/12/21 01:29:04;;;;;;;9.90;3.28;;;8.40;99.90;;;;;;5098981;28;21417;-69
2022/12/21 01:31:30;;;;;;;8.57;3.50;;;8.40;99.90;;;;;;5098800;28;20036;-69
2022/12/21 01:33:55;;;;;;;8.68;3.33;;;8.40;99.90;;;;;;5081704;28;20040;-69
2022/12/21 01:36:23;;;;;;;7.68;3.00;;;8.40;99.90;;;;;;5096672;28;20051;-69
2022/12/21 01:38:49;;;;;;;11.77;3.65;;;8.40;99.90;;;;;;5098553;28;20058;-69
2022/12/21 01:41:20;;;;;;;6.50;2.67;;;8.40;99.90;;;;;;5102947;28;20024;-69
2022/12/21 01:43:56;;;;;;;11.35;3.75;;;8.30;99.90;;;;;;5103833;28;20478;-69
2022/12/21 01:46:42;;;;;;;12.65;4.05;;;8.30;99.90;;;;;;5115539;28;20469;-69
2022/12/21 01:49:19;;;;;;;12.48;3.83;;;8.30;99.90;;;;;;5098882;28;20035;-69
2022/12/21 01:51:50;;;;;;;13.60;3.38;;;8.30;99.90;;;;;;5097217;28;20043;-69
2022/12/21 01:54:23;;;;;;;13.48;3.47;;;8.30;99.90;;;;;;5075135;28;20059;-70
2022/12/21 01:56:53;;;;;;;10.30;3.35;;;8.30;99.90;;;;;;5097431;28;20463;-69
2022/12/21 01:59:24;;;;;;;7.60;2.75;;;8.30;99.90;;;;;;5099949;28;20047;-70
2022/12/21 02:01:50;;;;;;;13.65;4.13;;;8.40;99.90;;;;;;5101912;28;20144;-69
2022/12/21 02:04:16;;;;;;;13.30;3.75;;;8.30;99.90;;;;;;5084571;28;20240;-69
2022/12/21 02:06:50;;;;;;;10.88;4.93;;;8.30;99.90;;;;;;5104563;28;20301;-69
2022/12/21 02:09:16;;;;;;;8.88;3.40;;;8.30;99.90;;;;;;5104519;28;20044;-69
2022/12/21 02:11:42;;;;;;;6.55;2.50;;;8.30;99.90;;;;;;5101220;27;20434;-69
2022/12/21 02:14:11;;;;;;;9.65;3.53;;;8.30;99.90;;;;;;5083786;28;20097;-69
2022/12/21 02:16:57;;;;;;;8.48;3.65;;;8.30;99.90;;;;;;5102573;28;20043;-69
2022/12/21 02:19:50;;;;;;;8.45;2.75;;;8.30;99.90;;;;;;5062536;28;20047;-69
2022/12/21 02:22:34;;;;;;;6.10;3.03;;;8.20;99.90;;;;;;5103556;28;20423;-69
2022/12/21 02:25:30;;;;;;;7.75;3.35;;;8.20;99.90;;;;;;5104302;28;20078;-69
2022/12/21 02:28:38;;;;;;;8.50;3.10;;;8.20;99.90;;;;;;5100181;28;20044;-69
2022/12/21 02:31:16;;;;;;;9.13;2.95;;;8.20;99.90;;;;;;5065614;28;20519;-69
2022/12/21 02:33:53;;;;;;;5.80;2.28;;;8.10;99.90;;;;;;5103355;28;20480;-69
2022/12/21 02:37:06;;;;;;;10.68;3.05;;;8.20;99.90;;;;;;5098941;28;20100;-69
2022/12/21 02:40:13;;;;;;;6.57;2.78;;;8.10;99.90;;;;;;5078940;28;20052;-69
2022/12/21 02:45:47;;;;;;;5.85;2.72;;;8.10;99.90;;;;;;5102234;28;20044;-72
2022/12/21 02:48:28;;;;;;;11.40;3.78;;;8.10;99.90;;;;;;5101662;28;20062;-69
2022/12/21 02:50:59;;;;;;;8.45;2.83;;;8.10;99.90;;;;;;5103269;28;20050;-69
2022/12/21 02:53:31;;;;;;;9.15;3.17;;;8.10;99.90;;;;;;5103451;28;20493;-69
2022/12/21 02:55:57;;;;;;;7.53;2.63;;;8.00;99.90;;;;;;5086985;28;20035;-69
2022/12/21 02:58:23;;;;;;;7.35;2.90;;;8.10;99.90;;;;;;5100539;28;20112;-69
2022/12/21 03:00:52;;;;;;;7.32;3.15;;;8.10;99.90;;;;;;5095247;28;20146;-69
2022/12/21 03:03:54;;;;;;;9.55;3.33;;;8.10;99.90;;;;;;5103943;28;20117;-69
2022/12/21 03:06:34;;;;;;;8.57;2.53;;;8.10;99.90;;;;;;5104198;28;20031;-69
2022/12/21 03:09:27;;;;;;;10.80;2.78;;;8.10;99.90;;;;;;5087386;28;20172;-70
2022/12/21 03:12:00;;;;;;;8.52;3.13;;;8.10;99.90;;;;;;5100238;28;20039;-70
2022/12/21 03:15:08;;;;;;;7.05;2.85;;;8.10;99.90;;;;;;5101501;28;20537;-70
2022/12/21 03:17:59;;;;;;;6.28;2.17;;;8.10;99.90;;;;;;5075109;28;20040;-70
2022/12/21 03:21:14;;;;;;;4.93;2.05;;;8.10;99.90;;;;;;5103203;28;20095;-69
2022/12/21 03:23:54;;;;;;;7.40;2.53;;;8.10;99.90;;;;;;5056468;28;20043;-70
2022/12/21 03:26:41;;;;;;;6.97;2.53;;;8.00;99.90;;;;;;5101782;28;20156;-69
2022/12/21 03:29:11;;;;;;;8.90;2.70;;;8.10;99.90;;;;;;5100484;28;20054;-70
2022/12/21 03:31:42;;;;;;;4.30;1.88;;;8.00;99.90;;;;;;5078672;28;20047;-70
2022/12/21 03:34:15;;;;;;;7.03;2.55;;;8.00;99.90;;;;;;5103291;28;20135;-70
2022/12/21 03:36:57;;;;;;;8.45;2.40;;;8.00;99.90;;;;;;5119522;27;20194;-70
2022/12/21 03:39:26;;;;;;;6.90;2.30;;;7.90;99.90;;;;;;5100143;27;20047;-70
2022/12/21 03:42:05;;;;;;;5.00;2.42;;;7.90;99.90;;;;;;5101032;28;20369;-70
2022/12/21 03:44:55;;;;;;;5.60;1.83;;;7.90;99.90;;;;;;5100648;28;20047;-70
2022/12/21 03:47:28;;;;;;;6.65;2.22;;;7.90;99.90;;;;;;5096910;28;20028;-70
2022/12/21 03:49:58;;;;;;;8.75;2.83;;;7.90;99.90;;;;;;5100196;28;20080;-70
2022/12/21 03:52:41;;;;;;;9.07;2.90;;;7.90;99.90;;;;;;5085250;28;20027;-70
2022/12/21 03:55:12;;;;;;;6.10;2.63;;;7.90;99.90;;;;;;5102272;28;20042;-70
2022/12/21 03:57:39;;;;;;;6.78;2.65;;;7.90;99.90;;;;;;5102832;28;20114;-70
2022/12/21 04:00:05;;;;;;;7.28;2.53;;;7.90;99.90;;;;;;5100614;28;20040;-70
2022/12/21 04:02:53;;;;;;;5.95;1.85;;;7.90;99.90;;;;;;5100188;28;20083;-70
2022/12/21 04:05:35;;;;;;;4.28;1.85;;;7.90;99.90;;;;;;5085692;28;20111;-69
2022/12/21 04:08:01;;;;;;;5.88;2.15;;;7.80;99.90;;;;;;5117157;27;20040;-70
2022/12/21 04:10:27;;;;;;;8.52;2.92;;;7.90;99.90;;;;;;5104147;28;20134;-70
2022/12/21 04:12:53;;;;;;;7.75;2.42;;;7.80;99.90;;;;;;5082240;28;20031;-70
2022/12/21 04:15:21;;;;;;;8.93;3.10;;;7.90;99.90;;;;;;5100681;28;20050;-70
2022/12/21 04:17:50;;;;;;;7.75;3.10;;;7.90;99.90;;;;;;5098819;27;20053;-70
2022/12/21 04:20:18;;;;;;;7.60;3.20;;;7.80;99.90;;;;;;5102783;28;20043;-69
2022/12/21 04:28:26;;;;;;;7.90;2.70;;;7.90;99.90;;;;;;5100212;28;20043;-70
2022/12/21 04:30:52;;;;;;;6.15;2.40;;;7.80;99.90;;;;;;5099534;28;20044;-70
2022/12/21 04:33:20;;;;;;;7.78;2.97;;;7.90;99.90;;;;;;5101355;28;20402;-70
2022/12/21 04:38:34;;;;;;;8.55;3.25;;;7.80;99.90;;;;;;5099712;28;20471;-69
2022/12/21 04:41:00;;;;;;;7.43;3.28;;;7.80;99.90;;;;;;5099749;28;20044;-70
2022/12/21 04:43:26;;;;;;;8.40;3.42;;;7.80;99.90;;;;;;5104154;28;20039;-69
2022/12/21 04:46:06;;;;;;;14.65;3.97;;;7.80;99.90;;;;;;5083948;28;20059;-69
2022/12/21 04:48:32;;;;;;;7.05;2.67;;;7.80;99.90;;;;;;5100752;27;20288;-69
2022/12/21 04:51:05;;;;;;;7.65;3.30;;;7.80;99.90;;;;;;5100340;28;20288;-69
2022/12/21 04:53:30;;;;;;;11.93;4.05;;;7.80;99.90;;;;;;5098914;27;20253;-69
2022/12/21 04:55:56;;;;;;;8.73;3.05;;;7.80;99.90;;;;;;5101080;28;20042;-69
2022/12/21 04:58:21;;;;;;;9.52;3.78;;;7.80;99.90;;;;;;5101787;28;20109;-69
2022/12/21 05:00:47;;;;;;;7.97;3.20;;;7.80;99.90;;;;;;5088549;28;20506;-70
2022/12/21 05:03:13;;;;;;;5.88;2.65;;;7.80;99.90;;;;;;5101573;28;20076;-69
2022/12/21 05:05:39;;;;;;;9.30;3.53;;;7.80;99.90;;;;;;5081577;28;20035;-69
2022/12/21 05:08:04;;;;;;;10.68;3.97;;;7.70;99.90;;;;;;5099276;27;20042;-69
2022/12/21 05:10:30;;;;;;;11.45;3.10;;;7.70;99.90;;;;;;5101032;28;20075;-69
2022/12/21 05:12:56;;;;;;;8.30;4.15;;;7.80;99.90;;;;;;5100274;28;20039;-70
2022/12/21 05:15:21;;;;;;;9.43;3.15;;;7.70;99.90;;;;;;5099414;28;20179;-70
2022/12/21 05:17:47;;;;;;;8.80;3.65;;;7.80;99.90;;;;;;5100992;28;20440;-69
2022/12/21 05:20:12;;;;;;;12.32;4.50;;;7.80;99.90;;;;;;5097274;28;20039;-69
2022/12/21 05:22:38;;;;;;;12.32;4.40;;;7.80;99.90;;;;;;5100269;28;20072;-70
2022/12/21 05:25:04;;;;;;;11.05;3.65;;;7.80;99.90;;;;;;5101393;28;20073;-69
2022/12/21 05:27:30;;;;;;;11.18;3.63;;;7.70;99.90;;;;;;5103273;28;20062;-69
2022/12/21 05:29:55;;;;;;;11.43;3.50;;;7.70;99.90;;;;;;5099277;28;20030;-69
2022/12/21 05:32:21;;;;;;;9.07;3.78;;;7.80;99.90;;;;;;5101482;28;20031;-69
2022/12/21 05:34:46;;;;;;;8.55;3.80;;;7.70;99.90;;;;;;5099106;28;20047;-69
2022/12/21 05:37:12;;;;;;;13.23;4.63;;;7.70;99.90;;;;;;5097561;28;20048;-69
2022/12/21 05:39:37;;;;;;;13.52;4.45;;;7.70;99.90;;;;;;5105497;28;20036;-70
2022/12/21 05:42:03;;;;;;;10.68;4.45;;;7.70;99.90;;;;;;5105184;28;20483;-69
2022/12/21 05:44:29;;;;;;;9.95;3.80;;;7.70;99.90;;;;;;5103844;28;20039;-69
2022/12/21 05:46:55;;;;;;;8.98;4.00;;;7.70;99.90;;;;;;5103661;28;20028;-69
2022/12/21 05:49:21;;;;;;;7.22;3.22;;;7.70;99.90;;;;;;5104309;28;20487;-69
2022/12/21 05:51:50;;;;;;;9.45;3.80;;;7.70;99.90;;;;;;5103769;28;20481;-70
2022/12/21 05:54:16;;;;;;;11.82;4.18;;;7.80;99.90;;;;;;5100582;28;20063;-69
2022/12/21 05:56:42;;;;;;;8.70;3.95;;;7.70;99.90;;;;;;5087744;28;20050;-70
2022/12/21 05:59:08;;;;;;;13.23;5.22;;;7.70;99.90;;;;;;5105731;28;20043;-69
2022/12/21 06:01:33;;;;;;;10.18;3.60;;;7.70;99.90;;;;;;5102358;28;20047;-69
2022/12/21 06:03:59;;;;;;;9.77;4.03;;;7.70;99.90;;;;;;5105159;28;20043;-69
2022/12/21 06:06:25;;;;;;;13.00;5.60;;;7.70;99.90;;;;;;5103799;27;20110;-69
2022/12/21 06:08:51;;;;;;;11.20;4.47;;;7.70;99.90;;;;;;5098033;27;20037;-69
2022/12/21 06:11:23;;;;;;;13.05;5.05;;;7.70;99.90;;;;;;5106381;28;20044;-69
2022/12/21 06:13:49;;;;;;;10.43;3.55;;;7.70;99.90;;;;;;5103939;28;20031;-69
2022/12/21 06:16:18;;;;;;;12.50;4.43;;;7.70;99.90;;;;;;5086643;28;20042;-69
2022/12/21 06:18:44;;;;;;;12.90;4.20;;;7.80;99.90;;;;;;5102170;28;20401;-70
2022/12/21 06:21:12;;;;;;;14.27;4.60;;;7.80;99.90;;;;;;5085623;28;20451;-69
2022/12/21 06:23:38;;;;;;;11.57;4.38;;;7.80;99.90;;;;;;5103897;28;20092;-69
2022/12/21 06:26:06;;;;;;;10.38;4.65;;;7.80;99.90;;;;;;5100765;28;20442;-69
2022/12/21 06:28:33;;;;;;;11.90;4.93;;;7.80;99.90;;;;;;5101926;28;20381;-69
2022/12/21 06:31:06;;;;;;;15.10;4.97;;;7.80;99.90;;;;;;5103379;28;20538;-70
2022/12/21 06:33:32;;;;;;;11.80;4.95;;;7.80;99.90;;;;;;5101522;28;20128;-69
2022/12/21 06:35:57;;;;;;;8.65;3.45;;;7.80;99.90;;;;;;5106291;27;21405;-69
2022/12/21 06:38:24;;;;;;;15.52;5.93;;;7.80;99.90;;;;;;5102005;27;20040;-70
2022/12/21 06:41:00;;;;;;;12.85;4.57;;;7.80;99.90;;;;;;5110473;27;20036;-69
2022/12/21 06:43:27;;;;;;;12.50;4.78;;;7.90;99.90;;;;;;5081855;27;20123;-69
2022/12/21 06:45:57;;;;;;;12.95;4.47;;;7.90;99.90;;;;;;5096373;27;20603;-69
2022/12/21 06:48:26;;;;;;;10.68;4.50;;;7.90;99.90;;;;;;5102076;28;20053;-69
2022/12/21 06:51:00;;;;;;;13.45;4.88;;;7.90;99.90;;;;;;5100563;28;20036;-68
2022/12/21 06:53:29;;;;;;;15.20;5.25;;;7.90;99.90;;;;;;5081894;28;20139;-69
2022/12/21 06:56:16;;;;;;;17.98;4.85;;;7.90;99.90;;;;;;5099004;28;20073;-69
2022/12/21 06:58:42;;;;;;;16.80;5.75;;;7.90;99.90;;;;;;5091402;28;20044;-69
2022/12/21 07:01:19;;;;;;;18.88;5.82;;;7.90;99.90;;;;;;5098678;28;20046;-69
2022/12/21 07:03:45;;;;;;;13.88;4.63;;;7.90;99.90;;;;;;5095305;28;20035;-70
2022/12/21 07:06:13;;;;;;;18.90;5.47;;;8.00;99.90;;;;;;5099132;28;20059;-72
2022/12/21 07:08:39;;;;;;;13.02;4.97;;;8.00;99.90;;;;;;5100764;27;20039;-72
2022/12/21 07:11:07;;;;;;;16.30;5.53;;;8.00;99.90;;;;;;5096704;28;20051;-74
2022/12/21 07:13:37;;;;;;;11.32;4.60;;;7.90;99.90;;;;;;5083233;28;20699;-69
2022/12/21 07:16:03;;;;;;;12.32;4.97;;;8.00;99.90;;;;;;5096868;28;20054;-69
2022/12/21 07:18:29;;;;;;;17.27;5.63;;;8.00;99.90;;;;;;5100689;27;20048;-70
2022/12/21 07:21:03;;;;;;;9.43;4.07;;;8.00;99.90;;;;;;5069953;28;20088;-69
2022/12/21 07:23:34;;;;;;;13.48;4.32;;;7.90;99.90;;;;;;5097079;27;20044;-70
2022/12/21 07:26:00;;;;;;;13.73;5.10;;;8.00;99.90;;;;;;5095234;28;20485;-70
2022/12/21 07:28:26;;;;;;;14.55;4.68;;;7.90;99.90;;;;;;5100195;28;20076;-69
2022/12/21 07:30:52;;;;;;;11.30;4.70;;;7.90;99.90;;;;;;5086924;28;20737;-69
2022/12/21 07:33:19;;;;;;;13.45;4.13;;;7.90;99.90;;;;;;5104555;28;21187;-69
2022/12/21 07:35:48;;;;;;;12.43;3.92;;;7.90;99.90;;;;;;5100046;28;20059;-70
2022/12/21 07:38:14;;;;;;;11.93;3.85;;;7.90;99.90;;;;;;5104818;28;20035;-70
2022/12/21 07:40:39;;;;;;;8.88;3.75;;;7.90;99.90;;;;;;5084520;28;20496;-70
2022/12/21 07:43:09;;;;;;;12.50;5.30;;;7.90;99.90;;;;;;5087002;28;20046;-70
2022/12/21 07:45:36;;;;;;;12.82;4.72;;;7.90;99.90;;;;;;5096568;28;20028;-69
2022/12/21 07:48:01;;;;;;;11.35;3.80;;;7.90;99.90;;;;;;5085712;28;20043;-70
2022/12/21 07:50:27;;;;;;;9.75;3.75;;;7.90;99.90;;;;;;5107397;28;20395;-70
2022/12/21 07:52:53;;;;;;;11.95;4.90;;;7.90;99.90;;;;;;5104202;28;20050;-70
2022/12/21 07:55:19;;;;;;;13.32;5.10;;;7.90;99.90;;;;;;5101992;28;20448;-70
2022/12/21 07:57:44;;;;;;;15.50;4.47;;;7.90;99.90;;;;;;5102855;27;20028;-70
2022/12/21 08:00:10;;;;;;;12.95;3.88;;;7.90;99.90;;;;;;5085921;28;20088;-69
2022/12/21 08:02:36;;;;;;;12.48;4.40;;;7.90;99.90;;;;;;5097288;28;20084;-70
2022/12/21 08:05:01;;;;;;;14.00;4.43;;;7.90;99.90;;;;;;5102176;28;20043;-70
2022/12/21 08:07:27;;;;;;;13.43;5.03;;;7.90;99.90;;;;;;5099443;28;20085;-70
2022/12/21 08:09:53;;;;;;;17.65;4.60;;;7.90;99.90;;;;;;5084077;28;20082;-70
2022/12/21 08:12:18;;;;;;;11.48;5.03;;;7.90;99.90;;;;;;5097666;28;20034;-69
2022/12/21 08:14:44;;;;;;;13.38;4.80;;;7.90;99.90;;;;;;5095668;28;20044;-70
2022/12/21 08:17:09;;;;;;;18.35;5.80;;;7.90;99.90;;;;;;5102710;28;20031;-70
2022/12/21 08:19:35;;;;;;;13.07;5.03;;;7.90;99.90;;;;;;5100617;28;20084;-69
2022/12/21 08:22:00;;;;;;;16.63;4.85;;;7.90;99.90;;;;;;5102922;28;20578;-69
2022/12/21 08:24:27;;;;;;;16.63;5.85;;;7.90;99.90;;;;;;5102445;28;20031;-70
2022/12/21 08:26:52;;;;;;;17.35;6.00;;;7.90;99.90;;;;;;5101470;28;20684;-70
2022/12/21 08:29:18;;;;;;;12.35;4.82;;;7.90;99.90;;;;;;5097882;28;20043;-70
2022/12/21 08:31:44;;;;;;;18.90;5.25;;;7.90;99.90;;;;;;5100505;28;20870;-69
2022/12/21 08:34:09;;;;;;;15.38;4.50;;;7.90;99.90;;;;;;5102875;28;20556;-70
2022/12/21 08:36:35;;;;;;;15.65;5.68;;;7.90;99.90;;;;;;5071652;28;20051;-70
2022/12/21 08:39:00;;;;;;;15.57;5.47;;;7.90;99.90;;;;;;5101114;28;20385;-70
2022/12/21 08:41:26;;;;;;;17.23;5.93;;;7.90;99.90;;;;;;5096690;28;20118;-70
2022/12/21 08:43:51;;;;;;;13.15;4.88;;;7.90;99.90;;;;;;5101490;28;20029;-70
2022/12/21 08:46:17;;;;;;;14.32;3.88;;;7.90;99.90;;;;;;5102769;28;20043;-70
2022/12/21 08:48:42;;;;;;;16.83;6.45;;;7.90;99.90;;;;;;5100654;27;20038;-70
2022/12/21 08:51:08;;;;;;;12.48;4.28;;;7.90;99.90;;;;;;5101322;28;20051;-70
2022/12/21 08:53:36;;;;;;;14.18;5.43;;;7.90;99.90;;;;;;5099041;28;20039;-70
2022/12/21 08:56:02;;;;;;;20.55;7.10;;;7.90;99.90;;;;;;5101731;28;20036;-70
2022/12/21 08:58:28;;;;;;;16.42;5.85;;;7.90;99.90;;;;;;5100722;28;20483;-70
2022/12/21 09:00:55;;;;;;;21.30;6.25;;;7.90;99.90;;;;;;5102124;28;20166;-69
2022/12/21 09:03:21;;;;;;;14.38;5.55;;;7.90;99.90;;;;;;5076513;28;20039;-70
2022/12/21 09:05:52;;;;;;;16.70;6.35;;;7.90;99.90;;;;;;5099410;28;20039;-69
2022/12/21 09:08:17;;;;;;;23.95;7.10;;;8.00;99.90;;;;;;5093309;28;20161;-70
2022/12/21 09:10:43;;;;;;;17.13;6.65;;;8.00;99.90;;;;;;5098926;28;20505;-70
2022/12/21 09:13:09;;;;;;;19.95;5.88;;;8.00;99.90;;;;;;5100454;28;20035;-69
2022/12/21 09:15:41;;;;;;;18.42;6.15;;;8.00;99.90;;;;;;5098051;28;20035;-69
2022/12/21 09:18:07;;;;;;;22.70;6.20;;;8.00;99.90;;;;;;5100072;28;20306;-70
2022/12/21 09:20:33;;;;;;;12.48;6.05;;;8.10;99.90;;;;;;5100845;28;20039;-70
2022/12/21 09:22:59;;;;;;;15.80;5.18;;;8.10;99.90;;;;;;5103701;28;20031;-70
2022/12/21 09:25:24;;;;;;;16.70;6.20;;;8.10;99.90;;;;;;5100304;28;20038;-69
2022/12/21 09:27:50;;;;;;;18.63;6.20;;;8.10;99.90;;;;;;5102278;28;20031;-69
2022/12/21 09:30:16;;;;;;;21.02;6.32;;;8.10;99.90;;;;;;5100215;28;20136;-69
2022/12/21 09:32:41;;;;;;;15.85;5.45;;;8.10;99.90;;;;;;5082070;28;20068;-69
2022/12/21 09:35:07;;;;;;;15.95;6.13;;;8.10;99.90;;;;;;5097886;28;20048;-69
2022/12/21 09:37:33;;;;;;;18.05;6.20;;;8.10;99.90;;;;;;5097971;28;20044;-69
2022/12/21 09:39:59;;;;;;;16.15;6.18;;;8.10;99.90;;;;;;5100039;28;20119;-70
2022/12/21 09:42:55;;;;;;;18.95;6.95;;;8.10;99.90;;;;;;5097963;28;20173;-71
2022/12/21 09:45:43;;;;;;;21.25;6.32;;;8.10;99.90;;;;;;5111452;27;20035;-69
2022/12/21 09:48:14;;;;;;;20.77;5.72;;;8.10;99.90;;;;;;5097256;28;20032;-69
2022/12/21 09:50:48;;;;;;;16.40;7.07;;;8.10;99.90;;;;;;5088845;28;20059;-69
2022/12/21 09:53:26;;;;;;;14.20;6.38;;;8.10;99.90;;;;;;5095396;28;20047;-69
2022/12/21 09:55:58;;;;;;;16.42;6.80;;;8.10;99.90;;;;;;5096302;28;20069;-69
2022/12/21 09:58:43;;;;;;;18.85;7.00;;;8.10;99.90;;;;;;5098407;28;20492;-69
2022/12/21 10:01:20;;;;;;;20.30;6.45;;;8.10;99.90;;;;;;5097324;28;21334;-69
2022/12/21 10:04:09;;;;;;;12.98;5.00;;;8.10;99.90;;;;;;5080203;28;20062;-69
2022/12/21 10:07:08;;;;;;;20.75;5.80;;;8.10;99.90;;;;;;5099246;28;20067;-69
2022/12/21 10:09:46;;;;;;;20.42;5.80;;;8.10;99.90;;;;;;5097739;28;20048;-69
2022/12/21 10:12:42;;;;;;;12.57;5.22;;;8.10;99.90;;;;;;5100912;28;20513;-69
2022/12/21 10:15:12;;;;;;;18.10;6.93;;;8.10;99.90;;;;;;5095833;28;20035;-69
2022/12/21 10:18:02;;;;;;;18.13;5.78;;;8.00;99.90;;;;;;5083437;28;20122;-69
2022/12/21 10:20:50;;;;;;;19.13;6.28;;;8.00;99.90;;;;;;5098364;28;20040;-69
2022/12/21 10:23:35;;;;;;;19.65;6.43;;;8.00;99.90;;;;;;5100438;28;20027;-69
2022/12/21 10:26:05;;;;;;;16.73;5.53;;;8.00;99.90;;;;;;5101353;28;20111;-69
2022/12/21 10:28:37;;;;;;;16.88;5.55;;;8.10;99.90;;;;;;5073613;28;20040;-68
2022/12/21 10:31:05;;;;;;;22.90;6.63;;;8.10;99.90;;;;;;5079725;28;20455;-69
2022/12/21 10:33:35;;;;;;;14.73;5.45;;;8.10;99.90;;;;;;5099245;28;20490;-69
2022/12/21 10:36:04;;;;;;;14.05;5.38;;;8.10;99.90;;;;;;5101586;28;20059;-69
2022/12/21 10:38:33;;;;;;;20.23;6.30;;;8.10;99.90;;;;;;5090722;28;20039;-69
2022/12/21 10:41:01;;;;;;;14.35;5.50;;;8.10;99.90;;;;;;5104241;28;20027;-69
2022/12/21 10:43:26;;;;;;;15.73;4.20;;;8.10;99.90;;;;;;5080872;28;20084;-69
2022/12/21 10:45:52;;;;;;;9.80;3.65;;;8.10;99.90;;;;;;5104027;28;20032;-69
2022/12/21 10:48:19;;;;;;;17.30;4.95;;;8.10;99.90;;;;;;5102985;28;20035;-69
2022/12/21 10:50:48;;;;;;;13.15;5.57;;;8.10;99.90;;;;;;5103893;28;20050;-69
2022/12/21 10:53:21;;;;;;;18.30;5.50;;;8.10;99.90;;;;;;5103350;28;20044;-69
2022/12/21 10:55:47;;;;;;;13.30;5.10;;;8.10;99.90;;;;;;5103938;28;20040;-69
2022/12/21 10:58:17;;;;;;;9.30;4.45;;;8.10;99.90;;;;;;5102101;28;20028;-69
2022/12/21 11:01:00;;;;;;;31.05;8.25;;;8.10;99.90;;;;;;5081536;28;20046;-69
2022/12/21 11:03:34;;;;;;;16.70;5.28;;;8.10;99.90;;;;;;5098444;28;20502;-69
2022/12/21 11:06:18;;;;;;;14.35;5.75;;;8.10;99.90;;;;;;5081159;28;20123;-69
2022/12/21 11:08:51;;;;;;;21.92;8.90;;;8.10;99.90;;;;;;5095787;28;20043;-69
2022/12/21 11:11:31;;;;;;;15.40;5.65;;;8.10;99.90;;;;;;5099178;28;20055;-69
2022/12/21 11:14:12;;;;;;;18.17;6.68;;;8.10;99.90;;;;;;5110046;27;20114;-69
2022/12/21 11:16:38;;;;;;;14.40;5.13;;;8.10;99.90;;;;;;5077732;28;20043;-69
2022/12/21 11:19:07;;;;;;;18.35;6.97;;;8.10;99.90;;;;;;5103563;28;20039;-69
2022/12/21 11:21:55;;;;;;;22.70;7.22;;;8.20;99.90;;;;;;5081301;28;20133;-69
2022/12/21 11:24:22;;;;;;;15.25;5.90;;;8.20;99.90;;;;;;5105642;28;20409;-71
2022/12/21 11:26:55;;;;;;;15.73;5.43;;;8.20;99.90;;;;;;5084933;28;20032;-69
2022/12/21 11:29:45;;;;;;;17.00;6.20;;;8.20;99.90;;;;;;5104676;28;20675;-69
2022/12/21 11:32:12;;;;;;;18.63;6.82;;;8.20;99.90;;;;;;5104338;27;20028;-69
2022/12/21 11:34:43;;;;;;;15.43;6.13;;;8.20;99.90;;;;;;5103438;28;20040;-69
2022/12/21 11:37:38;;;;;;;17.85;5.15;;;8.30;99.90;;;;;;5098043;28;20074;-69
2022/12/21 11:40:22;;;;;;;14.73;4.53;;;8.30;99.90;;;;;;5099653;28;20507;-68
2022/12/21 11:42:55;;;;;;;21.83;6.00;;;8.30;99.90;;;;;;5080268;28;20244;-69
2022/12/21 11:45:35;;;;;;;15.60;5.25;;;8.30;99.90;;;;;;5098382;28;20034;-69
2022/12/21 11:48:16;;;;;;;15.55;5.47;;;8.30;99.90;;;;;;5080860;28;20038;-69
2022/12/21 11:51:11;;;;;;;22.35;6.85;;;8.40;99.90;;;;;;5072124;28;20039;-69
2022/12/21 11:53:59;;;;;;;13.43;5.60;;;8.30;99.90;;;;;;5102535;28;20038;-69
2022/12/21 11:56:41;;;;;;;14.95;5.22;;;8.40;99.90;;;;;;5096051;28;20068;-68
2022/12/21 11:59:42;;;;;;;17.90;6.75;;;8.40;99.90;;;;;;5087110;28;20493;-69
2022/12/21 12:02:11;;;;;;;13.45;4.28;;;8.40;99.90;;;;;;5116012;27;20425;-69
2022/12/21 12:04:59;;;;;;;13.60;4.97;;;8.40;99.90;;;;;;5095548;28;20036;-69
2022/12/21 12:07:36;;;;;;;20.30;6.43;;;8.40;99.90;;;;;;5094854;28;20059;-69
2022/12/21 12:10:17;;;;;;;14.63;6.72;;;8.40;99.90;;;;;;5070909;28;20047;-69
2022/12/21 12:12:58;;;;;;;17.10;4.85;;;8.40;99.90;;;;;;5093499;28;20039;-69
2022/12/21 12:15:30;;;;;;;14.98;5.30;;;8.40;99.90;;;;;;5099949;28;20031;-69
2022/12/21 12:18:05;;;;;;;21.38;6.82;;;8.40;99.90;;;;;;5101482;27;20043;-69
2022/12/21 12:20:45;;;;;;;19.65;6.75;;;8.40;99.90;;;;;;5094185;28;20062;-69
2022/12/21 12:23:35;;;;;;;19.83;5.35;;;8.40;99.90;;;;;;5093845;28;20040;-69
2022/12/21 12:26:13;;;;;;;13.77;6.13;;;8.40;99.90;;;;;;5092382;28;20061;-70
2022/12/21 12:28:53;;;;;;;15.18;4.53;;;8.50;99.90;;;;;;5100109;28;20020;-69
2022/12/21 12:31:24;;;;;;;15.73;5.45;;;8.50;99.90;;;;;;5097697;28;20134;-69
2022/12/21 12:34:11;;;;;;;25.05;6.28;;;8.50;99.90;;;;;;5097299;28;20054;-69
2022/12/21 12:36:53;;;;;;;15.38;7.43;;;8.50;99.90;;;;;;5069750;28;20051;-68
2022/12/21 12:39:31;;;;;;;21.50;7.75;;;8.50;99.90;;;;;;5095256;28;20103;-69
2022/12/21 12:42:03;;;;;;;17.20;6.35;;;8.50;99.90;;;;;;5094886;28;20067;-69
2022/12/21 12:45:10;;;;;;;17.05;5.22;;;8.50;99.90;;;;;;5095062;28;20036;-69
2022/12/21 12:48:05;;;;;;;17.35;6.07;;;8.50;99.90;;;;;;5092971;28;20041;-69
2022/12/21 12:50:48;;;;;;;14.32;5.75;;;8.50;99.90;;;;;;5069960;28;20036;-69
2022/12/21 12:53:51;;;;;;;19.13;5.95;;;8.50;99.90;;;;;;5091823;28;20039;-69
2022/12/21 12:56:53;;;;;;;11.10;5.55;;;8.40;99.90;;;;;;5096938;28;20068;-69
2022/12/21 12:59:22;;;;;;;12.82;6.30;;;8.40;99.90;;;;;;5098067;28;20042;-69
2022/12/21 13:01:55;;;;;;;22.65;6.75;;;8.40;99.90;;;;;;5080678;28;20177;-69
2022/12/21 13:04:41;;;;;;;14.18;5.25;;;8.40;99.90;;;;;;5100411;28;20499;-69
2022/12/21 13:07:24;;;;;;;17.23;5.65;;;8.40;99.90;;;;;;5070543;28;20088;-69
2022/12/21 13:10:08;;;;;;;13.68;5.28;;;8.40;99.90;;;;;;5093526;28;20048;-69
2022/12/21 13:12:52;;;;;;;11.65;5.03;;;8.30;99.90;;;;;;5112099;27;20070;-70
2022/12/21 13:15:36;;;;;;;18.67;5.93;;;8.40;99.90;;;;;;5093407;28;20165;-69
2022/12/21 13:18:07;;;;;;;22.30;7.38;;;8.40;99.90;;;;;;5095153;28;20063;-69
2022/12/21 13:20:35;;;;;;;15.38;5.70;;;8.40;99.90;;;;;;5100661;28;20048;-69
2022/12/21 13:23:16;;;;;;;14.38;4.88;;;8.30;99.90;;;;;;5093587;28;20661;-69
2022/12/21 13:26:00;;;;;;;19.50;6.35;;;8.40;99.90;;;;;;5113266;27;20123;-69
2022/12/21 13:28:35;;;;;;;17.70;6.13;;;8.30;99.90;;;;;;5096098;28;20426;-69